sensor_id;sensor_type;location;lat;lon;timestamp;noise_LAeq;noise_LA_min;noise_LA_max;noise_LA01;noise_LA95
67324;Laerm;57667;51.438;5.968;2022-08-03T00:00:05;35.93;31.58;38.37;;
67324;Laerm;57667;51.438;5.968;2022-08-03T00:00:16;36.29;31.64;39.84;;
67324;Laerm;57667;51.438;5.968;2022-08-03T00:00:26;36.00;31.76;41.97;;
67324;Laerm;57667;51.438;5.968;2022-08-03T00:00:39;36.17;32.73;38.55;;
67324;Laerm;57667;51.438;5.968;2022-08-03T00:00:50;36.64;31.67;40.88;;
67324;Laerm;57667;51.438;5.968;2022-08-03T00:01:00;36.42;32.52;39.23;;
67324;Laerm;57667;51.438;5.968;2022-08-03T00:01:11;36.38;32.02;39.06;;
67324;Laerm;57667;51.438;5.968;2022-08-03T00:01:25;37.26;32.05;51.74;;
67324;Laerm;57667;51.438;5.968;2022-08-03T00:01:35;36.28;31.80;38.73;;
67324;Laerm;57667;51.438;5.968;2022-08-03T00:01:46;36.47;32.04;39.44;;
67324;Laerm;57667;51.438;5.968;2022-08-03T00:01:56;36.48;32.08;39.46;;
67324;Laerm;57667;51.438;5.968;2022-08-03T00:02:07;36.52;31.91;46.25;;
67324;Laerm;57667;51.438;5.968;2022-08-03T00:02:17;36.45;31.61;39.39;;
67324;Laerm;57667;51.438;5.968;2022-08-03T00:02:28;36.66;32.82;39.93;;
67324;Laerm;57667;51.438;5.968;2022-08-03T00:02:38;36.10;31.59;38.65;;
67324;Laerm;57667;51.438;5.968;2022-08-03T00:02:48;36.14;31.71;38.73;;
67324;Laerm;57667;51.438;5.968;2022-08-03T00:02:59;36.12;31.86;39.09;;
67324;Laerm;57667;51.438;5.968;2022-08-03T00:03:09;36.68;31.61;41.36;;
67324;Laerm;57667;51.438;5.968;2022-08-03T00:03:19;36.38;32.14;39.14;;
67324;Laerm;57667;51.438;5.968;2022-08-03T00:03:30;36.07;31.87;39.24;;
67324;Laerm;57667;51.438;5.968;2022-08-03T00:03:40;36.42;31.93;39.24;;
67324;Laerm;57667;51.438;5.968;2022-08-03T00:03:50;36.25;31.52;39.04;;
67324;Laerm;57667;51.438;5.968;2022-08-03T00:04:01;36.26;31.67;38.97;;
67324;Laerm;57667;51.438;5.968;2022-08-03T00:04:11;36.39;32.18;38.98;;
67324;Laerm;57667;51.438;5.968;2022-08-03T00:04:21;36.49;32.86;40.28;;
67324;Laerm;57667;51.438;5.968;2022-08-03T00:04:32;36.18;31.10;38.78;;
67324;Laerm;57667;51.438;5.968;2022-08-03T00:04:42;36.00;31.09;39.06;;
67324;Laerm;57667;51.438;5.968;2022-08-03T00:04:52;36.20;31.26;40.92;;
67324;Laerm;57667;51.438;5.968;2022-08-03T00:05:03;36.33;31.00;39.17;;
67324;Laerm;57667;51.438;5.968;2022-08-03T00:05:13;40.72;34.92;44.69;;
67324;Laerm;57667;51.438;5.968;2022-08-03T00:05:24;50.45;40.54;56.10;;
67324;Laerm;57667;51.438;5.968;2022-08-03T00:05:35;46.13;35.14;55.63;;
67324;Laerm;57667;51.438;5.968;2022-08-03T00:05:45;37.39;33.07;40.07;;
67324;Laerm;57667;51.438;5.968;2022-08-03T00:05:55;36.54;31.61;39.06;;
67324;Laerm;57667;51.438;5.968;2022-08-03T00:06:06;36.55;32.50;39.09;;
67324;Laerm;57667;51.438;5.968;2022-08-03T00:06:16;36.80;32.32;39.40;;
67324;Laerm;57667;51.438;5.968;2022-08-03T00:06:26;36.59;32.26;39.33;;
67324;Laerm;57667;51.438;5.968;2022-08-03T00:06:37;36.71;32.51;39.60;;
67324;Laerm;57667;51.438;5.968;2022-08-03T00:06:47;36.74;32.89;45.25;;
67324;Laerm;57667;51.438;5.968;2022-08-03T00:06:57;36.36;31.56;39.05;;
67324;Laerm;57667;51.438;5.968;2022-08-03T00:07:08;36.43;32.27;38.87;;
67324;Laerm;57667;51.438;5.968;2022-08-03T00:07:18;36.60;33.36;39.62;;
67324;Laerm;57667;51.438;5.968;2022-08-03T00:07:28;36.38;32.04;41.70;;
67324;Laerm;57667;51.438;5.968;2022-08-03T00:07:39;36.66;32.84;38.94;;
67324;Laerm;57667;51.438;5.968;2022-08-03T00:07:50;37.19;33.07;51.25;;
67324;Laerm;57667;51.438;5.968;2022-08-03T00:08:00;36.63;32.47;39.19;;
67324;Laerm;57667;51.438;5.968;2022-08-03T00:08:10;36.73;33.32;39.24;;
67324;Laerm;57667;51.438;5.968;2022-08-03T00:08:21;36.27;32.26;38.93;;
67324;Laerm;57667;51.438;5.968;2022-08-03T00:08:31;36.30;32.46;41.29;;
67324;Laerm;57667;51.438;5.968;2022-08-03T00:08:42;36.23;31.96;38.78;;
67324;Laerm;57667;51.438;5.968;2022-08-03T00:08:52;36.31;31.63;39.17;;
67324;Laerm;57667;51.438;5.968;2022-08-03T00:09:06;36.18;32.25;39.24;;
67324;Laerm;57667;51.438;5.968;2022-08-03T00:09:16;36.26;31.65;41.83;;
67324;Laerm;57667;51.438;5.968;2022-08-03T00:09:27;36.23;31.10;39.07;;
67324;Laerm;57667;51.438;5.968;2022-08-03T00:09:37;36.23;32.20;38.79;;
67324;Laerm;57667;51.438;5.968;2022-08-03T00:09:47;36.27;31.61;39.45;;
67324;Laerm;57667;51.438;5.968;2022-08-03T00:09:58;36.38;32.40;38.91;;
67324;Laerm;57667;51.438;5.968;2022-08-03T00:10:08;36.26;31.83;38.64;;
67324;Laerm;57667;51.438;5.968;2022-08-03T00:10:19;36.35;32.31;39.13;;
67324;Laerm;57667;51.438;5.968;2022-08-03T00:10:29;36.20;32.09;39.38;;
67324;Laerm;57667;51.438;5.968;2022-08-03T00:10:39;36.37;32.04;39.17;;
67324;Laerm;57667;51.438;5.968;2022-08-03T00:10:50;36.59;32.36;39.63;;
67324;Laerm;57667;51.438;5.968;2022-08-03T00:11:00;36.69;32.42;39.69;;
67324;Laerm;57667;51.438;5.968;2022-08-03T00:11:10;36.56;33.06;39.35;;
67324;Laerm;57667;51.438;5.968;2022-08-03T00:11:21;36.78;32.80;39.45;;
67324;Laerm;57667;51.438;5.968;2022-08-03T00:11:31;36.82;33.52;40.06;;
67324;Laerm;57667;51.438;5.968;2022-08-03T00:11:42;36.96;33.81;39.96;;
67324;Laerm;57667;51.438;5.968;2022-08-03T00:11:52;37.19;33.33;40.26;;
67324;Laerm;57667;51.438;5.968;2022-08-03T00:12:02;36.87;32.83;39.79;;
67324;Laerm;57667;51.438;5.968;2022-08-03T00:12:13;36.75;33.37;39.53;;
67324;Laerm;57667;51.438;5.968;2022-08-03T00:12:23;36.94;33.01;39.65;;
67324;Laerm;57667;51.438;5.968;2022-08-03T00:12:33;37.19;32.89;39.48;;
67324;Laerm;57667;51.438;5.968;2022-08-03T00:12:45;37.33;33.57;40.10;;
67324;Laerm;57667;51.438;5.968;2022-08-03T00:12:55;37.16;32.22;39.70;;
67324;Laerm;57667;51.438;5.968;2022-08-03T00:13:06;37.52;32.10;42.02;;
67324;Laerm;57667;51.438;5.968;2022-08-03T00:13:16;37.04;33.06;40.10;;
67324;Laerm;57667;51.438;5.968;2022-08-03T00:13:28;36.75;32.12;39.46;;
67324;Laerm;57667;51.438;5.968;2022-08-03T00:13:39;36.75;32.42;39.43;;
67324;Laerm;57667;51.438;5.968;2022-08-03T00:13:49;36.74;31.85;39.79;;
67324;Laerm;57667;51.438;5.968;2022-08-03T00:13:59;36.77;33.28;39.40;;
67324;Laerm;57667;51.438;5.968;2022-08-03T00:14:10;36.97;32.63;39.69;;
67324;Laerm;57667;51.438;5.968;2022-08-03T00:14:20;37.06;32.49;40.12;;
67324;Laerm;57667;51.438;5.968;2022-08-03T00:14:30;36.77;31.98;39.61;;
67324;Laerm;57667;51.438;5.968;2022-08-03T00:14:41;36.78;32.70;39.86;;
67324;Laerm;57667;51.438;5.968;2022-08-03T00:14:51;36.66;32.52;39.33;;
67324;Laerm;57667;51.438;5.968;2022-08-03T00:15:01;36.63;33.05;39.75;;
67324;Laerm;57667;51.438;5.968;2022-08-03T00:15:12;36.72;31.94;39.47;;
67324;Laerm;57667;51.438;5.968;2022-08-03T00:15:22;36.77;32.71;39.33;;
67324;Laerm;57667;51.438;5.968;2022-08-03T00:15:32;37.04;32.75;39.85;;
67324;Laerm;57667;51.438;5.968;2022-08-03T00:15:43;36.92;33.15;39.92;;
67324;Laerm;57667;51.438;5.968;2022-08-03T00:15:53;36.80;32.37;39.52;;
67324;Laerm;57667;51.438;5.968;2022-08-03T00:16:04;36.48;32.24;39.19;;
67324;Laerm;57667;51.438;5.968;2022-08-03T00:16:14;36.25;31.85;38.67;;
67324;Laerm;57667;51.438;5.968;2022-08-03T00:16:25;36.30;32.25;38.77;;
67324;Laerm;57667;51.438;5.968;2022-08-03T00:16:36;36.28;31.33;39.03;;
67324;Laerm;57667;51.438;5.968;2022-08-03T00:16:46;36.49;32.67;39.40;;
67324;Laerm;57667;51.438;5.968;2022-08-03T00:16:57;36.82;33.54;39.37;;
67324;Laerm;57667;51.438;5.968;2022-08-03T00:17:07;36.62;32.53;39.33;;
67324;Laerm;57667;51.438;5.968;2022-08-03T00:17:17;36.51;32.62;39.14;;
67324;Laerm;57667;51.438;5.968;2022-08-03T00:17:28;36.20;32.01;38.70;;
67324;Laerm;57667;51.438;5.968;2022-08-03T00:17:38;35.94;31.95;38.62;;
67324;Laerm;57667;51.438;5.968;2022-08-03T00:17:48;37.30;31.70;47.90;;
67324;Laerm;57667;51.438;5.968;2022-08-03T00:17:59;36.01;31.31;38.68;;
67324;Laerm;57667;51.438;5.968;2022-08-03T00:18:09;35.90;31.62;38.57;;
67324;Laerm;57667;51.438;5.968;2022-08-03T00:18:19;35.89;31.65;38.53;;
67324;Laerm;57667;51.438;5.968;2022-08-03T00:18:30;36.07;32.07;38.68;;
67324;Laerm;57667;51.438;5.968;2022-08-03T00:18:40;36.01;32.13;39.24;;
67324;Laerm;57667;51.438;5.968;2022-08-03T00:18:51;35.99;32.09;38.96;;
67324;Laerm;57667;51.438;5.968;2022-08-03T00:19:01;36.35;32.22;39.23;;
67324;Laerm;57667;51.438;5.968;2022-08-03T00:19:12;36.35;31.71;39.38;;
67324;Laerm;57667;51.438;5.968;2022-08-03T00:19:22;36.59;31.83;39.59;;
67324;Laerm;57667;51.438;5.968;2022-08-03T00:19:33;36.74;32.25;39.36;;
67324;Laerm;57667;51.438;5.968;2022-08-03T00:19:43;36.11;31.63;39.49;;
67324;Laerm;57667;51.438;5.968;2022-08-03T00:19:53;37.09;32.16;39.78;;
67324;Laerm;57667;51.438;5.968;2022-08-03T00:20:04;37.14;32.30;43.96;;
67324;Laerm;57667;51.438;5.968;2022-08-03T00:20:14;37.28;32.33;39.98;;
67324;Laerm;57667;51.438;5.968;2022-08-03T00:20:25;36.34;32.62;45.61;;
67324;Laerm;57667;51.438;5.968;2022-08-03T00:20:35;35.37;32.78;37.52;;
67324;Laerm;57667;51.438;5.968;2022-08-03T00:20:46;35.98;31.75;55.39;;
67324;Laerm;57667;51.438;5.968;2022-08-03T00:20:56;35.27;31.41;53.63;;
67324;Laerm;57667;51.438;5.968;2022-08-03T00:21:07;35.85;31.19;52.57;;
67324;Laerm;57667;51.438;5.968;2022-08-03T00:21:17;33.37;31.67;37.16;;
67324;Laerm;57667;51.438;5.968;2022-08-03T00:21:27;33.04;31.35;35.33;;
67324;Laerm;57667;51.438;5.968;2022-08-03T00:21:38;32.85;31.15;34.46;;
67324;Laerm;57667;51.438;5.968;2022-08-03T00:21:48;32.87;31.16;39.00;;
67324;Laerm;57667;51.438;5.968;2022-08-03T00:21:59;32.72;30.52;36.33;;
67324;Laerm;57667;51.438;5.968;2022-08-03T00:22:09;33.00;31.42;37.87;;
67324;Laerm;57667;51.438;5.968;2022-08-03T00:22:20;33.09;31.62;34.59;;
67324;Laerm;57667;51.438;5.968;2022-08-03T00:22:30;33.04;31.08;36.05;;
67324;Laerm;57667;51.438;5.968;2022-08-03T00:22:43;32.81;31.16;34.34;;
67324;Laerm;57667;51.438;5.968;2022-08-03T00:22:53;33.08;31.22;34.79;;
67324;Laerm;57667;51.438;5.968;2022-08-03T00:23:04;33.74;31.69;38.44;;
67324;Laerm;57667;51.438;5.968;2022-08-03T00:23:14;36.11;33.61;38.08;;
67324;Laerm;57667;51.438;5.968;2022-08-03T00:23:25;40.39;36.31;45.74;;
67324;Laerm;57667;51.438;5.968;2022-08-03T00:23:35;73.42;43.99;80.19;;
67324;Laerm;57667;51.438;5.968;2022-08-03T00:23:46;72.17;69.05;78.12;;
67324;Laerm;57667;51.438;5.968;2022-08-03T00:23:56;67.64;51.48;78.97;;
67324;Laerm;57667;51.438;5.968;2022-08-03T00:24:06;50.95;45.29;55.50;;
67324;Laerm;57667;51.438;5.968;2022-08-03T00:24:16;45.85;40.99;50.86;;
67324;Laerm;57667;51.438;5.968;2022-08-03T00:24:27;40.93;35.27;45.00;;
67324;Laerm;57667;51.438;5.968;2022-08-03T00:24:37;36.46;33.94;41.39;;
67324;Laerm;57667;51.438;5.968;2022-08-03T00:24:48;34.01;31.43;36.40;;
67324;Laerm;57667;51.438;5.968;2022-08-03T00:24:58;32.79;30.80;35.37;;
67324;Laerm;57667;51.438;5.968;2022-08-03T00:25:09;32.16;30.92;33.47;;
67324;Laerm;57667;51.438;5.968;2022-08-03T00:25:19;32.39;30.52;41.63;;
67324;Laerm;57667;51.438;5.968;2022-08-03T00:25:29;32.14;30.56;40.45;;
67324;Laerm;57667;51.438;5.968;2022-08-03T00:25:40;31.86;30.36;33.51;;
67324;Laerm;57667;51.438;5.968;2022-08-03T00:25:50;32.04;30.45;34.98;;
67324;Laerm;57667;51.438;5.968;2022-08-03T00:26:01;32.33;30.41;40.36;;
67324;Laerm;57667;51.438;5.968;2022-08-03T00:26:11;32.33;30.62;38.31;;
67324;Laerm;57667;51.438;5.968;2022-08-03T00:26:21;32.90;31.18;34.49;;
67324;Laerm;57667;51.438;5.968;2022-08-03T00:26:32;33.07;31.20;35.11;;
67324;Laerm;57667;51.438;5.968;2022-08-03T00:26:42;32.11;30.72;33.71;;
67324;Laerm;57667;51.438;5.968;2022-08-03T00:26:52;32.14;30.62;37.79;;
67324;Laerm;57667;51.438;5.968;2022-08-03T00:27:03;32.15;30.86;33.54;;
67324;Laerm;57667;51.438;5.968;2022-08-03T00:27:13;32.11;30.58;34.41;;
67324;Laerm;57667;51.438;5.968;2022-08-03T00:27:23;32.00;30.41;33.53;;
67324;Laerm;57667;51.438;5.968;2022-08-03T00:27:34;31.91;29.99;33.49;;
67324;Laerm;57667;51.438;5.968;2022-08-03T00:27:44;32.08;29.97;33.74;;
67324;Laerm;57667;51.438;5.968;2022-08-03T00:27:54;32.23;30.55;34.16;;
67324;Laerm;57667;51.438;5.968;2022-08-03T00:28:05;32.15;30.64;33.85;;
67324;Laerm;57667;51.438;5.968;2022-08-03T00:28:15;32.24;30.50;36.90;;
67324;Laerm;57667;51.438;5.968;2022-08-03T00:28:26;32.24;30.66;34.16;;
67324;Laerm;57667;51.438;5.968;2022-08-03T00:28:36;32.25;30.78;33.99;;
67324;Laerm;57667;51.438;5.968;2022-08-03T00:28:47;32.20;30.56;34.04;;
67324;Laerm;57667;51.438;5.968;2022-08-03T00:28:57;32.06;30.25;33.80;;
67324;Laerm;57667;51.438;5.968;2022-08-03T00:29:08;32.18;30.27;36.68;;
67324;Laerm;57667;51.438;5.968;2022-08-03T00:29:18;32.12;30.75;33.67;;
67324;Laerm;57667;51.438;5.968;2022-08-03T00:29:28;32.10;30.38;33.86;;
67324;Laerm;57667;51.438;5.968;2022-08-03T00:29:39;32.14;30.32;33.57;;
67324;Laerm;57667;51.438;5.968;2022-08-03T00:29:49;32.18;30.47;34.54;;
67324;Laerm;57667;51.438;5.968;2022-08-03T00:29:59;32.19;30.63;33.88;;
67324;Laerm;57667;51.438;5.968;2022-08-03T00:30:10;32.18;30.42;33.78;;
67324;Laerm;57667;51.438;5.968;2022-08-03T00:30:20;32.06;30.37;34.11;;
67324;Laerm;57667;51.438;5.968;2022-08-03T00:30:31;32.18;30.72;34.07;;
67324;Laerm;57667;51.438;5.968;2022-08-03T00:30:41;31.93;30.49;33.30;;
67324;Laerm;57667;51.438;5.968;2022-08-03T00:30:52;31.75;30.33;33.13;;
67324;Laerm;57667;51.438;5.968;2022-08-03T00:31:02;31.83;30.14;33.47;;
67324;Laerm;57667;51.438;5.968;2022-08-03T00:31:13;32.36;30.14;38.77;;
67324;Laerm;57667;51.438;5.968;2022-08-03T00:31:23;31.85;30.26;33.40;;
67324;Laerm;57667;51.438;5.968;2022-08-03T00:31:33;32.07;30.12;33.68;;
67324;Laerm;57667;51.438;5.968;2022-08-03T00:31:44;32.33;30.45;34.83;;
67324;Laerm;57667;51.438;5.968;2022-08-03T00:31:54;32.29;30.32;33.98;;
67324;Laerm;57667;51.438;5.968;2022-08-03T00:32:04;32.59;30.84;36.96;;
67324;Laerm;57667;51.438;5.968;2022-08-03T00:32:15;34.44;31.17;43.89;;
67324;Laerm;57667;51.438;5.968;2022-08-03T00:32:26;37.16;30.55;51.31;;
67324;Laerm;57667;51.438;5.968;2022-08-03T00:32:36;32.57;30.66;34.40;;
67324;Laerm;57667;51.438;5.968;2022-08-03T00:32:46;33.04;30.83;34.67;;
67324;Laerm;57667;51.438;5.968;2022-08-03T00:32:57;34.17;30.94;42.73;;
67324;Laerm;57667;51.438;5.968;2022-08-03T00:33:07;33.46;31.24;43.35;;
67324;Laerm;57667;51.438;5.968;2022-08-03T00:33:20;33.48;31.21;35.52;;
67324;Laerm;57667;51.438;5.968;2022-08-03T00:33:31;35.29;31.31;43.84;;
67324;Laerm;57667;51.438;5.968;2022-08-03T00:33:41;33.73;31.39;39.54;;
67324;Laerm;57667;51.438;5.968;2022-08-03T00:33:51;33.69;31.28;36.21;;
67324;Laerm;57667;51.438;5.968;2022-08-03T00:34:02;36.24;31.06;48.24;;
67324;Laerm;57667;51.438;5.968;2022-08-03T00:34:12;33.44;31.23;36.05;;
67324;Laerm;57667;51.438;5.968;2022-08-03T00:34:22;34.28;31.40;45.79;;
67324;Laerm;57667;51.438;5.968;2022-08-03T00:34:32;33.50;31.18;35.36;;
67324;Laerm;57667;51.438;5.968;2022-08-03T00:34:43;33.38;31.11;35.86;;
67324;Laerm;57667;51.438;5.968;2022-08-03T00:34:53;33.43;30.82;41.28;;
67324;Laerm;57667;51.438;5.968;2022-08-03T00:35:04;32.77;30.94;34.94;;
67324;Laerm;57667;51.438;5.968;2022-08-03T00:35:15;33.01;30.97;34.75;;
67324;Laerm;57667;51.438;5.968;2022-08-03T00:35:26;33.47;31.03;40.52;;
67324;Laerm;57667;51.438;5.968;2022-08-03T00:35:36;32.47;30.79;34.46;;
67324;Laerm;57667;51.438;5.968;2022-08-03T00:35:47;34.82;30.21;47.14;;
67324;Laerm;57667;51.438;5.968;2022-08-03T00:35:57;32.25;30.03;34.61;;
67324;Laerm;57667;51.438;5.968;2022-08-03T00:36:08;32.34;30.33;36.56;;
67324;Laerm;57667;51.438;5.968;2022-08-03T00:36:18;32.52;30.80;34.20;;
67324;Laerm;57667;51.438;5.968;2022-08-03T00:36:28;32.88;30.91;35.14;;
67324;Laerm;57667;51.438;5.968;2022-08-03T00:36:39;32.91;30.90;34.82;;
67324;Laerm;57667;51.438;5.968;2022-08-03T00:36:49;33.45;29.95;42.94;;
67324;Laerm;57667;51.438;5.968;2022-08-03T00:36:59;32.31;30.74;33.95;;
67324;Laerm;57667;51.438;5.968;2022-08-03T00:37:10;32.67;30.81;34.46;;
67324;Laerm;57667;51.438;5.968;2022-08-03T00:37:20;33.24;31.05;36.01;;
67324;Laerm;57667;51.438;5.968;2022-08-03T00:37:30;35.62;30.59;47.92;;
67324;Laerm;57667;51.438;5.968;2022-08-03T00:37:41;32.44;30.92;35.40;;
67324;Laerm;57667;51.438;5.968;2022-08-03T00:37:51;32.30;30.51;36.61;;
67324;Laerm;57667;51.438;5.968;2022-08-03T00:38:01;32.44;30.48;41.67;;
67324;Laerm;57667;51.438;5.968;2022-08-03T00:38:12;32.38;30.60;36.91;;
67324;Laerm;57667;51.438;5.968;2022-08-03T00:38:22;32.25;30.38;34.39;;
67324;Laerm;57667;51.438;5.968;2022-08-03T00:38:32;32.19;29.71;33.93;;
67324;Laerm;57667;51.438;5.968;2022-08-03T00:38:43;32.33;30.50;34.08;;
67324;Laerm;57667;51.438;5.968;2022-08-03T00:38:53;32.30;30.29;34.21;;
67324;Laerm;57667;51.438;5.968;2022-08-03T00:39:04;32.44;30.54;34.70;;
67324;Laerm;57667;51.438;5.968;2022-08-03T00:39:14;32.50;30.73;35.06;;
67324;Laerm;57667;51.438;5.968;2022-08-03T00:39:24;32.64;30.77;37.96;;
67324;Laerm;57667;51.438;5.968;2022-08-03T00:39:35;32.95;30.64;35.15;;
67324;Laerm;57667;51.438;5.968;2022-08-03T00:39:45;33.12;30.73;35.52;;
67324;Laerm;57667;51.438;5.968;2022-08-03T00:39:56;33.00;30.90;34.96;;
67324;Laerm;57667;51.438;5.968;2022-08-03T00:40:08;32.42;30.80;34.72;;
67324;Laerm;57667;51.438;5.968;2022-08-03T00:40:19;32.45;30.61;34.08;;
67324;Laerm;57667;51.438;5.968;2022-08-03T00:40:29;32.38;30.67;34.26;;
67324;Laerm;57667;51.438;5.968;2022-08-03T00:40:40;32.50;30.39;34.41;;
67324;Laerm;57667;51.438;5.968;2022-08-03T00:40:50;32.70;30.92;34.04;;
67324;Laerm;57667;51.438;5.968;2022-08-03T00:41:00;32.45;30.52;34.70;;
67324;Laerm;57667;51.438;5.968;2022-08-03T00:41:11;32.82;30.99;34.91;;
67324;Laerm;57667;51.438;5.968;2022-08-03T00:41:21;32.69;30.46;34.96;;
67324;Laerm;57667;51.438;5.968;2022-08-03T00:41:31;32.50;30.39;34.33;;
67324;Laerm;57667;51.438;5.968;2022-08-03T00:41:42;32.65;31.11;34.78;;
67324;Laerm;57667;51.438;5.968;2022-08-03T00:41:52;32.57;30.39;34.79;;
67324;Laerm;57667;51.438;5.968;2022-08-03T00:42:03;33.84;30.72;45.96;;
67324;Laerm;57667;51.438;5.968;2022-08-03T00:42:13;33.14;31.19;35.67;;
67324;Laerm;57667;51.438;5.968;2022-08-03T00:42:24;32.97;30.89;35.57;;
67324;Laerm;57667;51.438;5.968;2022-08-03T00:42:59;32.82;31.32;34.44;;
67324;Laerm;57667;51.438;5.968;2022-08-03T00:43:09;35.31;31.13;52.50;;
67324;Laerm;57667;51.438;5.968;2022-08-03T00:43:23;32.97;31.09;34.54;;
67324;Laerm;57667;51.438;5.968;2022-08-03T00:43:34;33.13;31.13;36.88;;
67324;Laerm;57667;51.438;5.968;2022-08-03T00:43:44;33.02;30.62;35.21;;
67324;Laerm;57667;51.438;5.968;2022-08-03T00:43:56;32.92;31.44;34.76;;
67324;Laerm;57667;51.438;5.968;2022-08-03T00:44:06;33.34;30.52;40.17;;
67324;Laerm;57667;51.438;5.968;2022-08-03T00:44:17;33.48;31.30;35.74;;
67324;Laerm;57667;51.438;5.968;2022-08-03T00:44:27;33.36;30.58;35.57;;
67324;Laerm;57667;51.438;5.968;2022-08-03T00:44:38;33.42;31.01;35.24;;
67324;Laerm;57667;51.438;5.968;2022-08-03T00:44:49;35.84;31.16;46.34;;
67324;Laerm;57667;51.438;5.968;2022-08-03T00:45:00;33.02;30.72;36.88;;
67324;Laerm;57667;51.438;5.968;2022-08-03T00:45:10;32.87;31.14;34.37;;
67324;Laerm;57667;51.438;5.968;2022-08-03T00:45:23;32.87;31.22;39.47;;
67324;Laerm;57667;51.438;5.968;2022-08-03T00:45:35;32.90;30.63;34.72;;
67324;Laerm;57667;51.438;5.968;2022-08-03T00:45:46;33.00;31.23;35.18;;
67324;Laerm;57667;51.438;5.968;2022-08-03T00:45:57;33.40;31.26;42.81;;
67324;Laerm;57667;51.438;5.968;2022-08-03T00:46:07;32.85;30.84;34.36;;
67324;Laerm;57667;51.438;5.968;2022-08-03T00:46:17;33.20;30.96;38.31;;
67324;Laerm;57667;51.438;5.968;2022-08-03T00:46:29;33.39;31.46;41.55;;
67324;Laerm;57667;51.438;5.968;2022-08-03T00:46:39;46.95;31.25;59.96;;
67324;Laerm;57667;51.438;5.968;2022-08-03T00:46:49;33.49;31.58;36.58;;
67324;Laerm;57667;51.438;5.968;2022-08-03T00:47:00;33.57;31.57;35.24;;
67324;Laerm;57667;51.438;5.968;2022-08-03T00:47:10;33.49;31.28;35.83;;
67324;Laerm;57667;51.438;5.968;2022-08-03T00:47:21;33.48;31.07;41.09;;
67324;Laerm;57667;51.438;5.968;2022-08-03T00:47:31;33.10;31.18;34.61;;
67324;Laerm;57667;51.438;5.968;2022-08-03T00:47:42;33.51;31.32;35.13;;
67324;Laerm;57667;51.438;5.968;2022-08-03T00:47:52;33.76;31.71;35.37;;
67324;Laerm;57667;51.438;5.968;2022-08-03T00:48:03;33.65;31.49;37.76;;
67324;Laerm;57667;51.438;5.968;2022-08-03T00:48:14;33.24;31.11;35.23;;
67324;Laerm;57667;51.438;5.968;2022-08-03T00:48:24;33.68;30.90;40.02;;
67324;Laerm;57667;51.438;5.968;2022-08-03T00:48:34;33.40;30.70;35.99;;
67324;Laerm;57667;51.438;5.968;2022-08-03T00:48:45;33.58;30.47;35.65;;
67324;Laerm;57667;51.438;5.968;2022-08-03T00:48:55;33.69;30.91;35.89;;
67324;Laerm;57667;51.438;5.968;2022-08-03T00:49:05;33.82;31.14;41.75;;
67324;Laerm;57667;51.438;5.968;2022-08-03T00:49:16;33.80;31.11;39.36;;
67324;Laerm;57667;51.438;5.968;2022-08-03T00:49:27;33.67;31.12;35.93;;
67324;Laerm;57667;51.438;5.968;2022-08-03T00:49:40;36.41;30.57;56.63;;
67324;Laerm;57667;51.438;5.968;2022-08-03T00:49:50;36.38;30.72;55.59;;
67324;Laerm;57667;51.438;5.968;2022-08-03T00:50:01;33.52;30.46;35.76;;
67324;Laerm;57667;51.438;5.968;2022-08-03T00:50:12;33.78;31.53;36.15;;
67324;Laerm;57667;51.438;5.968;2022-08-03T00:50:23;33.76;31.63;36.81;;
67324;Laerm;57667;51.438;5.968;2022-08-03T00:50:35;33.69;31.47;38.45;;
67324;Laerm;57667;51.438;5.968;2022-08-03T00:50:48;33.29;31.36;35.25;;
67324;Laerm;57667;51.438;5.968;2022-08-03T00:50:58;33.16;31.00;35.21;;
67324;Laerm;57667;51.438;5.968;2022-08-03T00:51:09;33.15;31.63;35.20;;
67324;Laerm;57667;51.438;5.968;2022-08-03T00:51:19;33.29;31.25;35.19;;
67324;Laerm;57667;51.438;5.968;2022-08-03T00:51:30;34.79;31.46;47.21;;
67324;Laerm;57667;51.438;5.968;2022-08-03T00:51:42;33.68;31.31;35.72;;
67324;Laerm;57667;51.438;5.968;2022-08-03T00:51:53;33.59;31.45;36.26;;
67324;Laerm;57667;51.438;5.968;2022-08-03T00:52:04;33.59;31.02;35.78;;
67324;Laerm;57667;51.438;5.968;2022-08-03T00:52:14;33.85;31.48;39.54;;
67324;Laerm;57667;51.438;5.968;2022-08-03T00:52:26;34.23;31.88;36.93;;
67324;Laerm;57667;51.438;5.968;2022-08-03T00:52:36;35.07;32.72;38.04;;
67324;Laerm;57667;51.438;5.968;2022-08-03T00:52:47;36.21;32.43;39.55;;
67324;Laerm;57667;51.438;5.968;2022-08-03T00:52:58;36.58;32.84;48.03;;
67324;Laerm;57667;51.438;5.968;2022-08-03T00:53:09;35.45;32.69;37.78;;
67324;Laerm;57667;51.438;5.968;2022-08-03T00:53:19;36.42;34.01;40.17;;
67324;Laerm;57667;51.438;5.968;2022-08-03T00:53:30;61.75;36.72;78.25;;
67324;Laerm;57667;51.438;5.968;2022-08-03T00:53:41;73.83;68.54;79.16;;
67324;Laerm;57667;51.438;5.968;2022-08-03T00:53:52;72.69;68.56;77.52;;
67324;Laerm;57667;51.438;5.968;2022-08-03T00:54:02;63.33;52.42;75.48;;
67324;Laerm;57667;51.438;5.968;2022-08-03T00:54:13;51.38;45.18;58.59;;
67324;Laerm;57667;51.438;5.968;2022-08-03T00:54:24;43.24;37.68;51.00;;
67324;Laerm;57667;51.438;5.968;2022-08-03T00:54:36;38.48;34.93;41.48;;
67324;Laerm;57667;51.438;5.968;2022-08-03T00:54:46;35.58;33.68;38.30;;
67324;Laerm;57667;51.438;5.968;2022-08-03T00:54:58;33.98;31.62;36.40;;
67324;Laerm;57667;51.438;5.968;2022-08-03T00:55:10;33.41;31.08;45.24;;
67324;Laerm;57667;51.438;5.968;2022-08-03T00:55:20;32.91;31.43;37.22;;
67324;Laerm;57667;51.438;5.968;2022-08-03T00:55:31;33.12;31.21;34.79;;
67324;Laerm;57667;51.438;5.968;2022-08-03T00:55:43;33.86;32.07;36.60;;
67324;Laerm;57667;51.438;5.968;2022-08-03T00:55:53;35.04;31.76;51.81;;
67324;Laerm;57667;51.438;5.968;2022-08-03T00:56:03;33.25;31.31;34.83;;
67324;Laerm;57667;51.438;5.968;2022-08-03T00:56:14;36.21;31.64;55.41;;
67324;Laerm;57667;51.438;5.968;2022-08-03T00:56:25;33.42;31.40;41.48;;
67324;Laerm;57667;51.438;5.968;2022-08-03T00:56:35;33.87;31.86;40.76;;
67324;Laerm;57667;51.438;5.968;2022-08-03T00:56:46;33.88;31.58;39.75;;
67324;Laerm;57667;51.438;5.968;2022-08-03T00:56:57;33.69;31.92;35.66;;
67324;Laerm;57667;51.438;5.968;2022-08-03T00:57:08;33.41;31.54;35.24;;
67324;Laerm;57667;51.438;5.968;2022-08-03T00:57:18;33.43;31.74;34.93;;
67324;Laerm;57667;51.438;5.968;2022-08-03T00:57:28;33.84;31.78;38.83;;
67324;Laerm;57667;51.438;5.968;2022-08-03T00:57:39;33.65;31.39;35.43;;
67324;Laerm;57667;51.438;5.968;2022-08-03T00:57:51;33.84;31.93;36.02;;
67324;Laerm;57667;51.438;5.968;2022-08-03T00:58:02;33.90;32.04;35.97;;
67324;Laerm;57667;51.438;5.968;2022-08-03T00:58:15;33.86;32.03;36.01;;
67324;Laerm;57667;51.438;5.968;2022-08-03T00:58:25;33.89;31.71;35.75;;
67324;Laerm;57667;51.438;5.968;2022-08-03T00:58:36;33.63;31.60;35.82;;
67324;Laerm;57667;51.438;5.968;2022-08-03T00:58:46;33.77;31.88;36.54;;
67324;Laerm;57667;51.438;5.968;2022-08-03T00:58:56;33.43;31.71;34.96;;
67324;Laerm;57667;51.438;5.968;2022-08-03T00:59:08;33.35;31.50;35.57;;
67324;Laerm;57667;51.438;5.968;2022-08-03T00:59:19;33.10;31.72;35.66;;
67324;Laerm;57667;51.438;5.968;2022-08-03T00:59:30;33.52;31.96;35.26;;
67324;Laerm;57667;51.438;5.968;2022-08-03T00:59:40;33.08;31.48;34.70;;